Ridgedale, Missouri
Current Conditions -  °F | °C
As of 4:00 PM on Friday 24 Oct 2014 (Local Time) from KBBG Reporting Station
Overcast Overcast  
Wind Chill: 77°   Ceiling: 20000
Heat Index: 79°   Visibility: 10mi
Dew Point: 59°   Wind: 7mph
Humidity: 54%   Direction: 300°WNW
Pressure: 30.08"   Gusts: NA
Location:  36.5°N, 93.22°W
Report Text: KBBG 242100Z 30006KT 10SM OVC200 25/15 A3008
Loading
Personal Weather Stations






























Interactive Weather Map
Tropical Storm Tracking
New forecast layout! Learn more

10-Day Weather Forecast

Advertisements
Track Severe Weather on mobile